Time;durP1;ratioP1;P1;durP2;ratioP2;P2;SDS_P1;SDS_P2;PMS_P1;PMS_P2;Temp;Humidity;BMP_temperature;BMP_pressure;BME280_temperature;BME280_humidity;BME280_pressure;Samples;Min_cycle;Max_cycle;Signal;HPM_P1;HPM_P2
2023/04/08 00:01:43;;;;;;;12.40;7.63;;;;;;;11.82;71.22;100967.03;5033496;28;20211;-68
2023/04/08 00:04:13;;;;;;;17.27;9.17;;;;;;;11.82;71.37;100974.16;5031647;28;20231;-68
2023/04/08 00:06:41;;;;;;;13.80;8.33;;;;;;;11.81;71.30;100969.81;5036823;28;20291;-68
2023/04/08 00:09:08;;;;;;;15.37;8.90;;;;;;;11.80;71.30;100963.66;5034262;28;20214;-68
2023/04/08 00:11:36;;;;;;;13.43;8.47;;;;;;;11.81;71.66;100959.19;5033879;28;20214;-68
2023/04/08 00:14:04;;;;;;;15.77;9.50;;;;;;;11.83;71.62;100967.84;5035460;28;20364;-68
2023/04/08 00:16:32;;;;;;;15.63;9.20;;;;;;;11.84;71.20;100970.38;5036419;28;20218;-67
2023/04/08 00:19:01;;;;;;;15.10;9.27;;;;;;;11.84;71.19;100970.38;5031990;28;20264;-68
2023/04/08 00:21:30;;;;;;;15.30;9.10;;;;;;;11.85;71.41;100971.22;5028287;28;20292;-69
2023/04/08 00:23:58;;;;;;;14.80;8.37;;;;;;;11.85;71.41;100973.88;5032856;28;20270;-69
2023/04/08 00:26:26;;;;;;;14.23;8.87;;;;;;;11.85;71.42;100965.91;5031500;28;20690;-68
2023/04/08 00:28:53;;;;;;;15.20;9.20;;;;;;;11.85;71.11;100971.22;5031300;28;20244;-68
2023/04/08 00:31:21;;;;;;;13.47;8.67;;;;;;;11.85;71.20;100971.22;5031184;28;20210;-68
2023/04/08 00:33:49;;;;;;;15.30;9.27;;;;;;;11.86;71.02;100978.22;5036216;28;20214;-67
2023/04/08 00:36:18;;;;;;;15.23;9.00;;;;;;;11.85;71.11;100972.06;5028695;28;20246;-68
2023/04/08 00:38:46;;;;;;;13.43;8.83;;;;;;;11.84;70.77;100964.22;5035018;28;20228;-68
2023/04/08 00:41:14;;;;;;;12.10;8.10;;;;;;;11.84;70.72;100959.75;5031695;28;20221;-68
2023/04/08 00:43:42;;;;;;;12.57;8.13;;;;;;;11.84;70.63;100959.75;5031905;28;20222;-70
2023/04/08 00:46:10;;;;;;;13.13;8.10;;;;;;;11.85;70.25;100973.88;5032235;28;20229;-66
2023/04/08 00:48:38;;;;;;;13.00;8.13;;;;;;;11.84;70.59;100974.84;5031254;28;20205;-68
2023/04/08 00:51:06;;;;;;;13.13;8.33;;;;;;;11.85;70.74;100973.88;5033033;28;20202;-69
2023/04/08 00:53:35;;;;;;;13.70;8.30;;;;;;;11.80;70.68;100974.28;5029795;28;20214;-67
2023/04/08 00:56:03;;;;;;;13.80;8.10;;;;;;;11.77;71.22;100971.09;5034066;28;20217;-68
2023/04/08 00:58:31;;;;;;;15.10;9.23;;;;;;;11.79;70.92;100977.09;5031980;28;20217;-68
2023/04/08 01:01:03;;;;;;;14.23;9.00;;;;;;;11.79;70.87;100982.41;5034571;28;20209;-67
2023/04/08 01:03:41;;;;;;;15.27;8.30;;;;;;;11.77;71.07;100979.06;5032072;28;20254;-68
2023/04/08 01:06:15;;;;;;;14.47;8.13;;;;;;;11.75;71.30;100976.56;5033500;28;20243;-67
2023/04/08 01:08:45;;;;;;;14.20;9.17;;;;;;;11.74;71.10;100979.31;5038530;28;20327;-68
2023/04/08 01:11:14;;;;;;;13.73;8.70;;;;;;;11.73;71.53;100974.97;5036339;28;20214;-67
2023/04/08 01:13:44;;;;;;;14.50;8.87;;;;;;;11.74;71.55;100974.00;5036793;28;20205;-68
2023/04/08 01:16:15;;;;;;;14.53;8.50;;;;;;;11.75;71.41;100973.06;5034755;28;20232;-68
2023/04/08 01:18:45;;;;;;;15.17;8.73;;;;;;;11.75;71.51;100975.72;5032313;28;20205;-67
2023/04/08 01:21:16;;;;;;;13.97;9.43;;;;;;;11.75;71.46;100973.06;5034160;28;20228;-67
2023/04/08 01:23:57;;;;;;;14.03;8.30;;;;;;;11.73;71.58;100972.31;5031098;28;20247;-68
2023/04/08 01:26:26;;;;;;;16.90;9.30;;;;;;;11.74;71.48;100976.66;5033934;28;20231;-67
2023/04/08 01:28:57;;;;;;;16.13;9.00;;;;;;;11.74;71.48;100981.97;5032596;28;20215;-68
2023/04/08 01:31:26;;;;;;;14.00;9.20;;;;;;;11.70;71.50;100976.94;5032390;28;20204;-68
2023/04/08 01:33:56;;;;;;;17.33;10.53;;;;;;;11.72;71.33;100981.28;5031219;28;20201;-68
2023/04/08 01:36:25;;;;;;;16.67;10.07;;;;;;;11.69;71.51;100974.44;5028452;28;20276;-68
2023/04/08 01:38:53;;;;;;;17.73;10.50;;;;;;;11.70;71.57;100976.09;5031137;28;20713;-68
2023/04/08 01:41:21;;;;;;;17.17;10.00;;;;;;;11.69;71.47;100972.63;5034309;28;20989;-68
2023/04/08 01:43:51;;;;;;;17.37;8.90;;;;;;;11.72;71.73;100976.78;5032194;28;20220;-69
2023/04/08 01:46:20;;;;;;;18.53;10.20;;;;;;;11.73;71.45;100967.00;5030843;28;20240;-67
2023/04/08 01:48:49;;;;;;;18.53;11.00;;;;;;;11.73;71.40;100964.34;5030050;28;20205;-68
2023/04/08 01:51:17;;;;;;;18.23;11.57;;;;;;;11.72;71.63;100967.97;5028220;28;20218;-69
2023/04/08 01:53:45;;;;;;;16.97;9.97;;;;;;;11.73;71.72;100964.34;5029246;28;20222;-69
2023/04/08 01:56:15;;;;;;;17.57;10.57;;;;;;;11.72;71.83;100966.16;5030774;28;20213;-67
2023/04/08 01:58:48;;;;;;;17.37;10.60;;;;;;;11.74;71.55;100969.53;5031398;28;20207;-68
2023/04/08 02:01:21;;;;;;;20.93;12.27;;;;;;;11.75;71.59;100965.09;5034664;28;20320;-67
2023/04/08 02:03:55;;;;;;;20.20;11.50;;;;;;;11.73;71.74;100969.66;5033621;28;20224;-67
2023/04/08 02:06:23;;;;;;;17.67;10.60;;;;;;;11.74;71.62;100966.03;5032740;28;20221;-68
2023/04/08 02:08:51;;;;;;;21.33;11.77;;;;;;;11.72;71.69;100966.16;5035488;28;20325;-68
2023/04/08 02:11:20;;;;;;;18.33;11.23;;;;;;;11.72;71.74;100965.31;5035589;28;20538;-67
2023/04/08 02:13:48;;;;;;;19.20;10.77;;;;;;;11.70;71.86;100963.66;5032523;28;20671;-68
2023/04/08 02:16:23;;;;;;;21.77;12.50;;;;;;;11.72;71.70;100970.63;5028964;28;20205;-68
2023/04/08 02:18:56;;;;;;;18.50;10.57;;;;;;;11.69;71.71;100971.78;5031188;28;20690;-67
2023/04/08 02:21:31;;;;;;;18.53;11.50;;;;;;;11.66;71.81;100972.91;5026618;28;20773;-68
2023/04/08 02:24:04;;;;;;;19.23;10.97;;;;;;;11.64;72.00;100980.16;5028704;28;20330;-66
2023/04/08 02:26:34;;;;;;;17.77;11.07;;;;;;;11.63;71.97;100980.31;5027466;28;20226;-67
2023/04/08 02:29:04;;;;;;;19.80;11.83;;;;;;;11.62;72.09;100982.13;5027452;28;21817;-67
2023/04/08 02:31:34;;;;;;;22.00;11.93;;;;;;;11.62;72.14;100981.28;5032934;28;20208;-66
2023/04/08 02:34:02;;;;;;;22.57;12.90;;;;;;;11.61;71.90;100977.78;5030248;28;20681;-67
2023/04/08 02:36:32;;;;;;;20.70;12.20;;;;;;;11.59;72.08;100979.78;5027164;28;20207;-67
2023/04/08 02:39:00;;;;;;;19.83;11.57;;;;;;;11.62;71.95;100978.63;5028056;28;20227;-68
2023/04/08 02:41:28;;;;;;;20.77;12.50;;;;;;;11.58;72.02;100980.75;5031330;28;20226;-67
2023/04/08 02:43:56;;;;;;;20.63;11.30;;;;;;;11.58;72.03;100982.56;5031495;28;20265;-69
2023/04/08 02:46:24;;;;;;;20.37;11.70;;;;;;;11.56;72.21;100979.19;5028825;28;20243;-69
2023/04/08 02:48:53;;;;;;;18.77;11.83;;;;;;;11.54;72.14;100976.69;5032026;28;20214;-68
2023/04/08 02:51:21;;;;;;;19.23;10.90;;;;;;;11.55;72.15;100986.34;5030411;28;20684;-68
2023/04/08 02:53:48;;;;;;;18.80;11.60;;;;;;;11.55;72.16;100983.69;5029202;28;20989;-67
2023/04/08 02:56:16;;;;;;;21.03;12.43;;;;;;;11.55;72.15;100975.72;5025923;28;21533;-67
2023/04/08 02:58:44;;;;;;;19.30;11.70;;;;;;;11.55;72.14;100975.72;5031995;28;20221;-68
2023/04/08 03:01:12;;;;;;;20.33;11.83;;;;;;;11.56;72.04;100976.53;5031036;28;20209;-68
2023/04/08 03:03:39;;;;;;;20.57;11.47;;;;;;;11.57;71.93;100973.75;5030387;28;20215;-67
2023/04/08 03:06:09;;;;;;;21.03;11.80;;;;;;;11.57;71.82;100979.06;5029007;28;20244;-68
2023/04/08 03:08:36;;;;;;;21.93;12.00;;;;;;;11.57;71.83;100979.06;5029539;28;20204;-67
2023/04/08 03:11:04;;;;;;;21.40;11.93;;;;;;;11.54;71.99;100978.50;5030018;28;20210;-68
2023/04/08 03:13:33;;;;;;;23.00;12.47;;;;;;;11.55;72.00;100985.50;5030010;28;20342;-68
2023/04/08 03:16:00;;;;;;;20.23;12.13;;;;;;;11.56;71.78;100988.00;5028713;28;20201;-69
2023/04/08 03:18:28;;;;;;;20.43;12.30;;;;;;;11.56;71.76;100984.53;5029156;28;20228;-69
2023/04/08 03:20:56;;;;;;;21.00;12.73;;;;;;;11.54;71.77;100989.13;5031344;28;20238;-67
2023/04/08 03:23:25;;;;;;;20.20;11.13;;;;;;;11.54;71.63;100987.31;5029671;28;20362;-67
2023/04/08 03:25:53;;;;;;;20.60;12.40;;;;;;;11.53;71.81;100988.28;5029405;28;20221;-68
2023/04/08 03:28:20;;;;;;;24.87;13.10;;;;;;;11.53;71.76;100988.28;5031309;28;20210;-67
2023/04/08 03:30:49;;;;;;;22.40;12.40;;;;;;;11.53;71.68;100993.59;5030218;28;20253;-67
2023/04/08 03:33:17;;;;;;;21.33;12.43;;;;;;;11.54;71.80;100989.97;5027730;28;20217;-68
2023/04/08 03:35:44;;;;;;;19.57;12.17;;;;;;;11.50;71.85;100993.91;5029765;28;20209;-68
2023/04/08 03:38:12;;;;;;;21.37;12.63;;;;;;;11.50;71.90;100993.91;5033168;28;20210;-69
2023/04/08 03:40:41;;;;;;;20.87;11.73;;;;;;;11.50;71.94;100999.22;5036897;28;20249;-67
2023/04/08 03:43:10;;;;;;;21.60;11.90;;;;;;;11.50;71.99;100999.22;5036668;28;20217;-69
2023/04/08 03:45:38;;;;;;;21.70;12.57;;;;;;;11.45;72.21;101001.44;5036373;28;20214;-68
2023/04/08 03:48:06;;;;;;;20.90;12.97;;;;;;;11.43;72.34;100998.09;5034172;28;20212;-68
2023/04/08 03:50:34;;;;;;;19.33;10.90;;;;;;;11.44;72.38;101005.06;5033321;28;20662;-68
2023/04/08 03:53:01;;;;;;;19.60;12.03;;;;;;;11.45;72.50;101001.44;5036561;28;20218;-68
2023/04/08 03:55:29;;;;;;;22.10;12.97;;;;;;;11.46;72.52;101002.28;5035098;28;20225;-68
2023/04/08 03:57:58;;;;;;;22.80;12.73;;;;;;;11.46;72.62;100999.63;5031614;28;20210;-68
2023/04/08 04:00:26;;;;;;;20.00;11.70;;;;;;;11.45;72.65;100997.94;5035436;28;20222;-67
2023/04/08 04:02:54;;;;;;;21.70;12.63;;;;;;;11.45;72.59;101004.09;5034485;28;20235;-67
2023/04/08 04:05:22;;;;;;;21.13;13.20;;;;;;;11.43;72.63;101003.41;5035985;28;20214;-68
2023/04/08 04:07:50;;;;;;;23.03;12.83;;;;;;;11.43;72.54;101008.72;5035528;28;20249;-67
2023/04/08 04:10:18;;;;;;;24.00;13.27;;;;;;;11.42;72.63;101012.34;5036964;28;22302;-68
2023/04/08 04:12:46;;;;;;;21.43;13.03;;;;;;;11.43;72.48;101013.19;5032799;28;20233;-69
2023/04/08 04:15:15;;;;;;;21.37;12.83;;;;;;;11.44;72.50;101013.03;5033956;28;20673;-68
2023/04/08 04:17:43;;;;;;;23.53;12.83;;;;;;;11.45;72.44;101012.06;5034944;28;20579;-68
2023/04/08 04:20:11;;;;;;;23.13;12.47;;;;;;;11.43;72.53;101014.03;5033970;28;20219;-68
2023/04/08 04:22:39;;;;;;;21.13;12.23;;;;;;;11.43;72.57;101013.19;5030107;28;20227;-67
2023/04/08 04:25:08;;;;;;;20.83;12.90;;;;;;;11.45;72.30;101013.88;5032519;28;20240;-67
2023/04/08 04:27:36;;;;;;;20.97;12.70;;;;;;;11.36;72.78;101012.91;5033114;28;20229;-68
2023/04/08 04:30:06;;;;;;;18.77;11.60;;;;;;;11.36;72.68;101017.38;5034965;28;20239;-67
2023/04/08 04:32:35;;;;;;;20.57;12.20;;;;;;;11.32;72.73;101019.47;5033571;28;20234;-68
2023/04/08 04:35:03;;;;;;;23.97;12.50;;;;;;;11.33;72.65;101018.50;5031671;28;20287;-67
2023/04/08 04:37:31;;;;;;;20.13;12.30;;;;;;;11.31;72.65;101029.25;5031924;28;20209;-69
2023/04/08 04:39:58;;;;;;;23.37;13.17;;;;;;;11.29;72.77;101022.41;5032768;28;20229;-68
2023/04/08 04:42:26;;;;;;;21.30;11.27;;;;;;;11.29;72.64;101025.06;5032343;28;20213;-67
2023/04/08 04:44:54;;;;;;;21.57;12.67;;;;;;;11.28;72.68;101031.34;5030804;28;20210;-67
2023/04/08 04:47:22;;;;;;;21.37;12.40;;;;;;;11.25;73.06;101029.00;5032172;28;20653;-67
2023/04/08 04:49:51;;;;;;;19.93;12.57;;;;;;;11.25;72.69;101031.63;5032147;28;20680;-68
2023/04/08 04:52:19;;;;;;;22.37;13.30;;;;;;;11.24;72.62;101036.13;5033872;28;20210;-68
2023/04/08 04:54:46;;;;;;;24.13;12.57;;;;;;;11.23;72.78;101033.59;5032267;28;20936;-68
2023/04/08 04:57:14;;;;;;;19.43;11.77;;;;;;;11.18;72.98;101038.47;5031609;28;20216;-67
2023/04/08 04:59:42;;;;;;;20.47;11.80;;;;;;;11.17;72.97;101042.13;5033253;28;20539;-68
2023/04/08 05:02:10;;;;;;;21.20;12.87;;;;;;;11.12;73.42;101036.38;5032586;28;20213;-67
2023/04/08 05:04:38;;;;;;;21.80;12.67;;;;;;;11.12;73.35;101042.50;5033620;28;20325;-66
2023/04/08 05:07:07;;;;;;;20.23;11.67;;;;;;;11.18;72.72;101051.72;5030304;28;20298;-68
2023/04/08 05:09:35;;;;;;;20.80;12.87;;;;;;;11.19;72.80;101042.78;5032476;28;20212;-66
2023/04/08 05:12:02;;;;;;;20.90;11.07;;;;;;;11.14;73.06;101040.56;5032726;28;20224;-67
2023/04/08 05:14:30;;;;;;;21.03;11.83;;;;;;;11.10;73.24;101043.63;5031945;28;20919;-67
2023/04/08 05:16:58;;;;;;;23.67;12.23;;;;;;;11.09;73.37;101044.59;5031712;28;20204;-67
2023/04/08 05:19:26;;;;;;;18.87;12.03;;;;;;;11.08;73.22;101057.03;5032971;28;20209;-69
2023/04/08 05:21:54;;;;;;;18.57;11.70;;;;;;;11.10;72.98;101051.59;5032659;28;20225;-69
2023/04/08 05:24:23;;;;;;;18.27;10.83;;;;;;;11.10;72.68;101055.06;5028895;28;20236;-68
2023/04/08 05:26:52;;;;;;;21.23;11.27;;;;;;;11.12;72.64;101057.59;5033606;28;20235;-68
2023/04/08 05:29:20;;;;;;;18.33;11.37;;;;;;;11.17;72.28;101063.34;5033444;28;20219;-67
2023/04/08 05:31:48;;;;;;;22.60;11.83;;;;;;;11.18;72.09;101052.56;5029770;28;21121;-69
2023/04/08 05:34:21;;;;;;;20.93;11.40;;;;;;;11.19;72.09;101064.88;5030927;28;20213;-70
2023/04/08 05:36:50;;;;;;;19.47;10.80;;;;;;;11.20;71.62;101065.72;5030046;28;20233;-69
2023/04/08 05:39:19;;;;;;;17.77;11.33;;;;;;;11.19;71.42;101074.66;5033321;28;20585;-68
2023/04/08 05:41:48;;;;;;;16.87;10.93;;;;;;;11.20;71.27;101069.22;5029822;28;20212;-68
2023/04/08 05:44:15;;;;;;;18.30;10.87;;;;;;;11.24;71.02;101072.44;5028779;28;20216;-68
2023/04/08 05:46:43;;;;;;;18.70;11.10;;;;;;;11.23;70.96;101076.06;5029233;28;20975;-68
2023/04/08 05:49:11;;;;;;;15.30;10.00;;;;;;;11.16;71.07;101075.78;5033137;28;20208;-68
2023/04/08 05:51:39;;;;;;;21.20;11.83;;;;;;;11.12;71.08;101074.38;5032565;28;20216;-69
2023/04/08 05:54:07;;;;;;;17.17;11.00;;;;;;;11.07;71.28;101081.91;5031728;28;20221;-67
2023/04/08 05:56:35;;;;;;;18.20;10.67;;;;;;;11.03;71.45;101080.50;5029672;28;20214;-68
2023/04/08 05:59:04;;;;;;;17.67;10.20;;;;;;;11.04;71.44;101087.47;5029390;28;20262;-67
2023/04/08 06:01:32;;;;;;;15.97;9.77;;;;;;;11.04;71.50;101091.94;5033880;28;20741;-68
2023/04/08 06:04:00;;;;;;;15.93;10.10;;;;;;;11.03;71.32;101088.44;5034314;28;20218;-67
2023/04/08 06:06:27;;;;;;;19.10;11.00;;;;;;;10.99;71.40;101094.19;5030794;28;20205;-67
2023/04/08 06:08:55;;;;;;;16.67;10.40;;;;;;;10.99;71.39;101094.19;5036327;28;20234;-68
2023/04/08 06:11:23;;;;;;;16.20;10.67;;;;;;;10.99;71.49;101096.84;5034203;28;20686;-68
2023/04/08 06:13:50;;;;;;;24.60;12.53;;;;;;;11.01;71.61;101097.50;5035967;28;20204;-67
2023/04/08 06:16:19;;;;;;;18.50;10.50;;;;;;;11.01;71.55;101100.16;5030729;28;20210;-68
2023/04/08 06:18:48;;;;;;;21.97;11.13;;;;;;;11.04;71.54;101097.25;5030778;28;20206;-67
2023/04/08 06:21:16;;;;;;;18.20;10.60;;;;;;;11.07;71.29;101112.91;5031989;28;20209;-68
2023/04/08 06:23:44;;;;;;;14.17;9.30;;;;;;;11.10;71.28;101112.63;5033766;28;20244;-66
2023/04/08 06:26:12;;;;;;;18.30;10.50;;;;;;;11.12;71.35;101116.00;5032282;28;21104;-65
2023/04/08 06:28:40;;;;;;;15.70;9.70;;;;;;;11.17;71.24;101108.47;5033994;28;20256;-66
2023/04/08 06:31:07;;;;;;;15.83;9.30;;;;;;;11.14;71.31;101119.34;5033030;28;20208;-65
2023/04/08 06:33:36;;;;;;;16.23;9.77;;;;;;;11.10;71.15;101115.28;5033286;28;20228;-65
2023/04/08 06:36:05;;;;;;;15.97;10.13;;;;;;;11.09;71.35;101118.91;5033861;28;20212;-66
2023/04/08 06:38:33;;;;;;;14.93;9.43;;;;;;;11.15;71.20;101121.88;5032891;28;20222;-64
2023/04/08 06:41:04;;;;;;;15.83;9.23;;;;;;;11.18;70.78;101118.09;5029233;28;20664;-67
2023/04/08 06:43:32;;;;;;;13.00;8.77;;;;;;;11.23;70.71;101123.84;5027821;28;20209;-66
2023/04/08 06:46:00;;;;;;;16.87;9.87;;;;;;;11.28;70.17;101132.22;5028271;28;20216;-66
2023/04/08 06:48:29;;;;;;;15.63;9.70;;;;;;;11.30;70.44;101136.44;5031757;28;20224;-65
2023/04/08 06:51:00;;;;;;;15.53;9.40;;;;;;;11.35;70.52;101130.72;5029691;28;20209;-65
2023/04/08 06:53:30;;;;;;;16.43;9.53;;;;;;;11.40;70.14;101131.16;5031053;28;20209;-68
2023/04/08 06:55:57;;;;;;;14.87;9.50;;;;;;;11.38;70.00;101130.44;5030100;28;20769;-66
2023/04/08 06:58:25;;;;;;;14.80;9.73;;;;;;;11.38;70.14;101133.09;5025723;28;20214;-66
2023/04/08 07:00:54;;;;;;;14.40;9.43;;;;;;;11.39;69.86;101128.63;5029082;28;20568;-67
2023/04/08 07:03:21;;;;;;;16.43;9.53;;;;;;;11.40;69.93;101125.00;5028785;28;20216;-68
2023/04/08 07:05:49;;;;;;;14.47;9.17;;;;;;;11.43;69.28;101135.34;5027988;28;20221;-65
2023/04/08 07:08:19;;;;;;;15.23;10.30;;;;;;;11.32;69.38;101139.81;5029223;28;20228;-67
2023/04/08 07:10:47;;;;;;;14.30;9.07;;;;;;;11.31;69.04;101131.97;5011072;28;20207;-66
2023/04/08 07:13:17;;;;;;;15.57;8.90;;;;;;;11.22;69.35;101148.72;5028433;28;20895;-65
2023/04/08 07:15:45;;;;;;;17.63;10.73;;;;;;;11.27;69.34;101144.66;5030681;28;20216;-66
2023/04/08 07:18:13;;;;;;;17.97;10.13;;;;;;;11.46;68.98;101154.50;5028465;28;20211;-64
2023/04/08 07:20:41;;;;;;;14.53;9.60;;;;;;;11.58;68.37;101152.56;5027588;28;20701;-68
2023/04/08 07:23:09;;;;;;;16.67;10.90;;;;;;;11.64;68.03;101154.66;5028689;28;20220;-65
2023/04/08 07:25:38;;;;;;;16.57;9.40;;;;;;;11.76;67.41;101158.06;5029395;28;20221;-65
2023/04/08 07:28:05;;;;;;;13.40;9.40;;;;;;;11.79;67.18;101158.59;5029073;28;20235;-67
2023/04/08 07:30:33;;;;;;;13.47;9.77;;;;;;;11.78;67.15;101156.97;5028977;28;20502;-66
2023/04/08 07:33:01;;;;;;;14.73;10.03;;;;;;;11.79;66.95;101163.09;5028963;28;20214;-66
2023/04/08 07:35:30;;;;;;;15.87;9.13;;;;;;;11.81;66.56;101164.63;5029906;28;20213;-64
2023/04/08 07:37:58;;;;;;;12.73;9.37;;;;;;;11.79;66.33;101169.25;5027400;28;20228;-63
2023/04/08 07:40:25;;;;;;;15.73;9.60;;;;;;;11.85;66.02;101174.03;5031233;28;20218;-62
2023/04/08 07:42:54;;;;;;;14.37;9.83;;;;;;;11.97;65.34;101172.88;5032725;28;20218;-62
2023/04/08 07:45:22;;;;;;;12.87;9.70;;;;;;;12.10;64.85;101180.59;5030709;28;20226;-62
2023/04/08 07:47:50;;;;;;;12.90;9.77;;;;;;;12.21;64.38;101182.25;5028793;28;20263;-63
2023/04/08 07:50:18;;;;;;;13.77;9.00;;;;;;;12.33;63.97;101175.78;5029593;28;20218;-62
2023/04/08 07:52:46;;;;;;;13.90;9.63;;;;;;;12.32;63.74;101179.44;5031724;28;21233;-62
2023/04/08 07:55:13;;;;;;;13.90;9.87;;;;;;;12.40;63.52;101180.41;5030129;28;20207;-62
2023/04/08 07:57:41;;;;;;;13.20;9.73;;;;;;;12.50;63.11;101179.53;5028780;28;20208;-63
2023/04/08 08:00:11;;;;;;;15.17;9.30;;;;;;;12.57;62.59;101184.19;5034213;28;20272;-63
2023/04/08 08:02:39;;;;;;;16.20;10.27;;;;;;;12.57;61.91;101186.84;5035575;28;20669;-63
2023/04/08 08:05:07;;;;;;;13.23;9.57;;;;;;;12.58;61.65;101188.47;5033635;28;20335;-63
2023/04/08 08:07:35;;;;;;;15.17;9.43;;;;;;;12.53;61.50;101187.25;5029237;28;20285;-62
2023/04/08 08:10:03;;;;;;;12.20;9.87;;;;;;;12.52;61.42;101193.53;5035748;28;20231;-63
2023/04/08 08:12:31;;;;;;;14.47;10.00;;;;;;;12.55;61.53;101195.94;5031640;28;20266;-62
2023/04/08 08:14:59;;;;;;;14.90;10.47;;;;;;;12.60;62.10;101197.16;5032437;28;20208;-62
2023/04/08 08:17:29;;;;;;;17.03;10.40;;;;;;;12.76;61.35;101191.25;5031260;28;20418;-63
2023/04/08 08:19:57;;;;;;;16.17;10.80;;;;;;;12.89;61.56;101197.09;5030837;28;20200;-64
2023/04/08 08:22:25;;;;;;;13.13;9.73;;;;;;;13.10;61.26;101194.22;5030458;28;20217;-62
2023/04/08 08:24:56;;;;;;;16.03;10.77;;;;;;;13.18;60.64;101197.84;5032551;28;20252;-61
2023/04/08 08:27:24;;;;;;;15.13;10.27;;;;;;;13.27;60.20;101205.94;5032856;28;20228;-62
2023/04/08 08:29:52;;;;;;;15.57;10.90;;;;;;;13.25;60.10;101194.59;5038127;28;20313;-63
2023/04/08 08:32:20;;;;;;;12.87;10.23;;;;;;;13.21;59.99;101201.19;5034915;28;20213;-62
2023/04/08 08:34:49;;;;;;;16.27;10.90;;;;;;;13.17;59.95;101196.19;5033929;28;20215;-61
2023/04/08 08:37:16;;;;;;;16.53;11.67;;;;;;;13.12;60.27;101193.06;5037126;28;20204;-64
2023/04/08 08:39:44;;;;;;;15.07;10.50;;;;;;;13.04;60.49;101194.78;5032955;28;20219;-62
2023/04/08 08:42:20;;;;;;;15.10;10.77;;;;;;;13.00;60.89;101204.06;5033599;28;20216;-63
2023/04/08 08:44:48;;;;;;;14.90;11.53;;;;;;;13.08;60.85;101199.69;5035193;28;20211;-63
2023/04/08 08:47:16;;;;;;;15.90;11.17;;;;;;;13.16;60.87;101210.47;5034950;28;20200;-63
2023/04/08 08:49:44;;;;;;;15.23;11.30;;;;;;;13.43;60.50;101214.13;5034303;28;20387;-63
2023/04/08 08:52:17;;;;;;;16.53;11.30;;;;;;;13.79;60.03;101220.38;5035454;28;21040;-62
2023/04/08 08:54:45;;;;;;;16.13;11.53;;;;;;;14.26;58.23;101210.28;5035207;28;20211;-64
2023/04/08 08:57:19;;;;;;;16.53;11.63;;;;;;;14.77;57.50;101219.41;5034053;28;20222;-67
2023/04/08 08:59:47;;;;;;;16.70;11.83;;;;;;;15.12;54.74;101229.97;5034912;28;20217;-63
2023/04/08 09:02:27;;;;;;;15.30;11.40;;;;;;;15.34;53.81;101224.03;5033605;28;20203;-63
2023/04/08 09:05:00;;;;;;;16.87;12.10;;;;;;;15.52;53.09;101223.09;5035597;28;20367;-62
2023/04/08 09:07:30;;;;;;;16.90;11.17;;;;;;;15.80;52.43;101230.75;5036479;28;20209;-62
2023/04/08 09:09:59;;;;;;;15.80;11.60;;;;;;;15.96;52.16;101227.25;5036581;28;20231;-64
2023/04/08 09:12:28;;;;;;;16.37;11.37;;;;;;;16.04;50.72;101227.28;5035376;28;20828;-64
2023/04/08 09:15:06;;;;;;;15.77;11.07;;;;;;;16.07;50.75;101226.94;5035564;28;20226;-64
2023/04/08 09:17:35;;;;;;;14.53;10.90;;;;;;;15.93;50.78;101230.25;5034246;28;20278;-62
2023/04/08 09:20:10;;;;;;;14.43;10.70;;;;;;;16.01;50.64;101232.09;5036155;28;20208;-62
2023/04/08 09:23:00;;;;;;;15.00;11.10;;;;;;;16.05;50.40;101239.66;5036471;28;20686;-63
2023/04/08 09:25:29;;;;;;;14.57;10.70;;;;;;;15.91;50.20;101236.78;5034045;28;20841;-63
2023/04/08 09:27:57;;;;;;;14.17;10.67;;;;;;;15.75;50.72;101229.53;5032288;28;20211;-64
2023/04/08 09:30:26;;;;;;;12.87;10.57;;;;;;;15.57;51.47;101229.66;5036141;28;20238;-63
2023/04/08 09:32:55;;;;;;;14.90;11.53;;;;;;;15.37;52.34;101230.91;5034107;28;20299;-64
2023/04/08 09:35:24;;;;;;;12.43;10.70;;;;;;;15.11;50.51;101238.97;5035901;28;20212;-64
2023/04/08 09:37:52;;;;;;;15.43;11.30;;;;;;;14.96;50.68;101229.84;5034637;28;20223;-62
2023/04/08 09:40:25;;;;;;;17.17;11.87;;;;;;;15.25;51.31;101238.34;5033425;28;20579;-65
2023/04/08 09:42:55;;;;;;;15.27;11.47;;;;;;;15.50;50.66;101227.75;5036016;28;20215;-64
2023/04/08 09:45:26;;;;;;;14.23;10.63;;;;;;;15.48;50.80;101229.78;5035629;28;20863;-63
2023/04/08 09:48:00;;;;;;;15.80;11.10;;;;;;;15.39;50.70;101227.06;5033744;28;20197;-65
2023/04/08 09:50:32;;;;;;;14.80;11.93;;;;;;;15.20;50.58;101238.00;5030691;28;20224;-63
2023/04/08 09:53:10;;;;;;;17.67;12.67;;;;;;;14.91;52.14;101235.66;5031022;28;20742;-65
2023/04/08 09:55:41;;;;;;;14.70;11.33;;;;;;;14.86;52.34;101234.47;5035160;28;20220;-64
2023/04/08 09:58:15;;;;;;;14.93;11.73;;;;;;;14.73;52.62;101234.88;5034735;28;20211;-65
2023/04/08 10:00:49;;;;;;;15.40;11.40;;;;;;;14.79;52.64;101236.06;5032015;28;20199;-63
2023/04/08 10:03:27;;;;;;;16.70;12.47;;;;;;;15.01;52.82;101235.56;5032841;28;20254;-64
2023/04/08 10:05:56;;;;;;;16.93;12.23;;;;;;;15.25;51.67;101246.38;5031850;28;20212;-63
2023/04/08 10:08:27;;;;;;;15.00;11.00;;;;;;;15.37;51.67;101245.09;5030906;28;20217;-65
2023/04/08 10:10:56;;;;;;;16.47;11.63;;;;;;;15.47;51.27;101233.44;5030002;28;20630;-61
2023/04/08 10:13:27;;;;;;;17.70;12.53;;;;;;;15.75;50.77;101237.56;5031246;28;20224;-61
2023/04/08 10:16:18;;;;;;;15.10;11.90;;;;;;;15.69;49.87;101240.91;5033214;28;20224;-64
2023/04/08 10:18:46;;;;;;;16.50;12.50;;;;;;;15.48;50.33;101241.28;5032547;28;20208;-63
2023/04/08 10:21:36;;;;;;;14.63;11.73;;;;;;;15.25;51.24;101246.38;5034509;28;20667;-62
2023/04/08 10:24:08;;;;;;;17.60;12.13;;;;;;;15.04;51.46;101243.25;5034766;28;20318;-62
2023/04/08 10:26:40;;;;;;;15.17;11.90;;;;;;;14.98;52.30;101243.88;5031510;28;20228;-62
2023/04/08 10:29:35;;;;;;;17.67;12.07;;;;;;;14.98;52.63;101243.88;5031508;28;20208;-66
2023/04/08 10:32:03;;;;;;;15.27;12.13;;;;;;;14.81;51.30;101242.09;5031306;28;20322;-64
2023/04/08 10:34:31;;;;;;;14.87;11.23;;;;;;;14.43;50.35;101249.50;5032309;28;20209;-64
2023/04/08 10:37:00;;;;;;;14.53;11.17;;;;;;;14.32;50.76;101257.72;5030223;28;20212;-63
2023/04/08 10:39:28;;;;;;;15.50;11.83;;;;;;;14.25;51.50;101253.97;5032890;28;20208;-63
2023/04/08 10:41:57;;;;;;;15.37;11.23;;;;;;;14.24;52.36;101254.97;5031328;28;20217;-65
2023/04/08 10:44:26;;;;;;;15.37;11.50;;;;;;;14.27;51.76;101250.16;5033628;28;20217;-65
2023/04/08 10:46:55;;;;;;;17.60;11.73;;;;;;;14.23;51.90;101253.31;5028954;28;20237;-64
2023/04/08 10:49:23;;;;;;;16.43;12.43;;;;;;;14.22;51.47;101251.63;5033522;28;20211;-65
2023/04/08 10:51:51;;;;;;;13.80;11.20;;;;;;;14.21;50.67;101253.44;5033013;28;20218;-64
2023/04/08 10:54:19;;;;;;;15.83;11.17;;;;;;;14.29;51.22;101248.19;5033892;28;20204;-64
2023/04/08 10:56:48;;;;;;;15.83;11.33;;;;;;;14.47;50.68;101245.53;5032153;28;20290;-65
2023/04/08 10:59:26;;;;;;;13.63;10.83;;;;;;;14.62;50.08;101246.66;5030620;28;20212;-64
2023/04/08 11:01:55;;;;;;;17.47;10.70;;;;;;;14.75;49.78;101246.25;5031274;28;20219;-65
2023/04/08 11:04:23;;;;;;;14.80;11.27;;;;;;;14.84;48.79;101239.97;5030381;28;20220;-64
2023/04/08 11:06:52;;;;;;;13.93;10.17;;;;;;;14.98;49.59;101243.88;5029822;28;20208;-65
2023/04/08 11:09:20;;;;;;;15.80;10.17;;;;;;;15.12;48.90;101246.00;5034043;28;20720;-63
2023/04/08 11:11:47;;;;;;;15.10;10.90;;;;;;;15.17;48.01;101238.31;5032845;28;20224;-61
2023/04/08 11:14:20;;;;;;;13.00;10.60;;;;;;;15.16;47.54;101241.97;5030066;28;20821;-66
2023/04/08 11:16:50;;;;;;;16.87;12.10;;;;;;;15.04;48.24;101240.56;5032678;28;20331;-66
2023/04/08 11:19:18;;;;;;;15.93;11.03;;;;;;;14.94;49.01;101243.38;5034012;28;20230;-66
2023/04/08 11:21:47;;;;;;;16.67;10.73;;;;;;;14.90;49.55;101246.50;5030489;28;20200;-65